Brooker, Florida
Current Conditions -  °F | °C
As of 7:01 PM on Sunday 21 Dec 2014 (Local Time) from KGNV Reporting Station
Light Rain Light Rain  
Wind Chill: 17°   Ceiling: 400
Heat Index: 17°   Visibility: 3mi
Dew Point: 16°   Wind: 6mph
Humidity: 96%   Direction: 60°ENE
Pressure: 30.05"   Gusts: NA
Location:  29.89°N, 82.33°W
Report Text: KGNV 220001Z 06005KT 3SM -RA BR OVC004 17/16 A3005 RMK AO2 P0000 T01670161
Loading
Personal Weather Stations






























Interactive Weather Map New forecast layout! Learn more

10-Day Weather Forecast

Advertisements
Track Severe Weather on mobile